Terminal Aerodrome Forecast
Issued by NWS

Home | Current Version | Previous Version | Graphics & Text | Print | Product List | Glossary Off
Versions: 1 2 3 4 5 6 7 8 9 10 11 12 13 14 15

000
FTUS45 KGGW 300500
TAFSDY
TAF
KSDY 300520Z 3006/0106 14008KT P6SM -SHRA OVC012
     FM301200 VRB06KT P6SM -RA OVC008
     FM301700 VRB06KT P6SM -RA OVC015
      AMD LTD TO CLD VIS AND WIND=

USA.gov is the U.S. government's official web portal to all federal, state and local government web resources and services.